createdAt,value
2023-04-10T00:00:58.017Z,100.00
2023-04-10T00:03:30.894Z,100.00
2023-04-10T00:06:01.525Z,100.00
2023-04-10T00:08:34.989Z,100.00
2023-04-10T00:11:08.285Z,100.00
2023-04-10T00:13:40.231Z,100.00
2023-04-10T00:16:11.345Z,100.00
2023-04-10T00:18:48.018Z,100.00
2023-04-10T00:21:18.319Z,100.00
2023-04-10T00:23:50.074Z,100.00
2023-04-10T00:26:27.313Z,100.00
2023-04-10T00:29:00.002Z,100.00
2023-04-10T00:31:31.037Z,100.00
2023-04-10T00:34:03.423Z,100.00
2023-04-10T00:36:34.422Z,100.00
2023-04-10T00:39:05.192Z,100.00
2023-04-10T00:41:38.942Z,100.00
2023-04-10T00:44:09.306Z,100.00
2023-04-10T00:46:41.663Z,100.00
2023-04-10T00:49:13.140Z,100.00
2023-04-10T00:51:44.152Z,100.00
2023-04-10T00:54:20.351Z,100.00
2023-04-10T00:56:57.668Z,100.00
2023-04-10T00:59:28.440Z,100.00
2023-04-10T01:01:59.512Z,100.00
2023-04-10T01:04:32.691Z,100.00
2023-04-10T01:07:11.840Z,100.00
2023-04-10T01:09:47.709Z,100.00
2023-04-10T01:12:41.112Z,100.00
2023-04-10T01:15:16.400Z,100.00
2023-04-10T01:17:53.626Z,100.00
2023-04-10T01:20:26.770Z,100.00
2023-04-10T01:23:21.176Z,100.00
2023-04-10T01:25:58.333Z,100.00
2023-04-10T01:28:51.148Z,100.00
2023-04-10T01:31:30.868Z,100.00
2023-04-10T01:34:08.283Z,100.00
2023-04-10T01:36:44.109Z,100.00
2023-04-10T01:39:15.538Z,100.00
2023-04-10T01:41:48.655Z,100.00
2023-04-10T01:44:21.682Z,100.00
2023-04-10T01:46:56.586Z,100.00
2023-04-10T01:49:30.917Z,100.00
2023-04-10T01:52:10.377Z,100.00
2023-04-10T01:54:41.794Z,100.00
2023-04-10T01:57:15.366Z,100.00
2023-04-10T01:59:58.569Z,100.00
2023-04-10T02:02:34.911Z,100.00
2023-04-10T02:05:05.679Z,100.00
2023-04-10T02:07:43.177Z,100.00
2023-04-10T02:10:17.249Z,100.00
2023-04-10T02:12:54.210Z,100.00
2023-04-10T02:15:30.039Z,100.00
2023-04-10T02:18:07.105Z,100.00
2023-04-10T02:20:38.704Z,100.00
2023-04-10T02:23:09.795Z,100.00
2023-04-10T02:25:40.547Z,100.00
2023-04-10T02:28:12.766Z,100.00
2023-04-10T02:30:44.223Z,100.00
2023-04-10T02:33:19.445Z,100.00
2023-04-10T02:35:50.500Z,100.00
2023-04-10T02:38:21.945Z,100.00
2023-04-10T02:40:53.637Z,100.00
2023-04-10T02:43:24.040Z,100.00
2023-04-10T02:45:55.220Z,100.00
2023-04-10T02:48:34.393Z,100.00
2023-04-10T02:51:07.517Z,100.00
2023-04-10T02:53:37.969Z,100.00
2023-04-10T02:56:12.118Z,100.00
2023-04-10T02:58:46.713Z,100.00
2023-04-10T03:01:18.638Z,100.00
2023-04-10T03:03:54.744Z,100.00
2023-04-10T03:06:32.114Z,100.00
2023-04-10T03:09:02.389Z,100.00
2023-04-10T03:11:32.855Z,100.00
2023-04-10T03:14:03.977Z,100.00
2023-04-10T03:16:34.576Z,100.00
2023-04-10T03:19:10.292Z,100.00
2023-04-10T03:21:41.071Z,100.00
2023-04-10T03:24:11.805Z,100.00
2023-04-10T03:26:42.435Z,100.00
2023-04-10T03:29:12.954Z,100.00
2023-04-10T03:31:44.503Z,100.00
2023-04-10T03:34:17.612Z,100.00
2023-04-10T03:36:48.340Z,100.00
2023-04-10T03:39:19.222Z,100.00
2023-04-10T03:41:49.664Z,100.00
2023-04-10T03:44:21.680Z,100.00
2023-04-10T03:46:52.287Z,100.00
2023-04-10T03:49:26.282Z,100.00
2023-04-10T03:52:06.013Z,100.00
2023-04-10T03:54:36.674Z,100.00
2023-04-10T03:57:07.743Z,100.00
2023-04-10T03:59:39.063Z,100.00
2023-04-10T04:02:14.864Z,100.00
2023-04-10T04:04:50.506Z,100.00
2023-04-10T04:07:41.147Z,100.00
2023-04-10T04:10:38.131Z,100.00
2023-04-10T04:27:57.888Z,100.00
2023-04-10T04:31:01.411Z,100.00
2023-04-10T04:33:51.374Z,100.00
2023-04-10T04:36:47.956Z,100.00
2023-04-10T04:39:21.379Z,100.00
2023-04-10T04:42:30.019Z,100.00
2023-04-10T04:45:10.656Z,100.00
2023-04-10T04:48:11.291Z,100.00
2023-04-10T04:51:02.104Z,100.00
2023-04-10T04:53:59.587Z,100.00
2023-04-10T04:57:10.132Z,100.00
2023-04-10T04:59:59.201Z,100.00
2023-04-10T05:02:50.856Z,100.00
2023-04-10T05:05:44.162Z,100.00
2023-04-10T05:08:31.488Z,100.00
2023-04-10T05:11:23.404Z,100.00
2023-04-10T05:14:02.071Z,100.00
2023-04-10T05:16:47.758Z,100.00
2023-04-10T05:19:35.958Z,100.00
2023-04-10T05:22:18.676Z,100.00
2023-04-10T05:25:27.314Z,100.00
2023-04-10T05:28:06.224Z,100.00
2023-04-10T05:30:56.018Z,100.00
2023-04-10T05:33:49.125Z,100.00
2023-04-10T05:36:59.012Z,100.00
2023-04-10T05:39:48.368Z,100.00
2023-04-10T05:42:30.872Z,100.00
2023-04-10T05:45:15.747Z,100.00
2023-04-10T05:47:58.322Z,100.00
2023-04-10T05:50:39.031Z,100.00
2023-04-10T05:53:25.696Z,100.00
2023-04-10T05:56:14.339Z,100.00
2023-04-10T05:59:07.581Z,100.00
2023-04-10T06:02:02.049Z,100.00
2023-04-10T06:04:35.076Z,100.00
2023-04-10T06:07:05.701Z,100.00
2023-04-10T06:09:38.805Z,100.00
2023-04-10T06:12:11.306Z,100.00
2023-04-10T06:14:43.606Z,100.00
2023-04-10T06:17:15.186Z,100.00
2023-04-10T06:19:45.366Z,100.00
2023-04-10T06:22:15.613Z,100.00
2023-04-10T06:24:48.449Z,100.00
2023-04-10T06:27:18.964Z,100.00
2023-04-10T06:29:50.148Z,100.00
2023-04-10T06:32:24.361Z,100.00
2023-04-10T06:34:54.613Z,100.00
2023-04-10T06:37:31.561Z,100.00
2023-04-10T06:40:12.245Z,100.00
2023-04-10T06:42:42.449Z,100.00
2023-04-10T06:45:18.669Z,100.00
2023-04-10T06:47:49.016Z,100.00
2023-04-10T06:50:19.228Z,100.00
2023-04-10T06:52:49.619Z,100.00
2023-04-10T06:55:22.622Z,100.00
2023-04-10T06:57:53.077Z,100.00
2023-04-10T07:00:24.038Z,100.00
2023-04-10T07:02:54.524Z,100.00
2023-04-10T07:05:25.375Z,100.00
2023-04-10T07:07:55.925Z,100.00
2023-04-10T07:10:28.806Z,100.00
2023-04-10T07:12:59.562Z,100.00
2023-04-10T07:15:30.052Z,100.00
2023-04-10T07:18:00.295Z,100.00
2023-04-10T07:20:30.503Z,100.00
2023-04-10T07:23:00.886Z,100.00
2023-04-10T07:25:33.898Z,100.00
2023-04-10T07:28:04.307Z,100.00
2023-04-10T07:30:34.798Z,100.00
2023-04-10T07:33:05.210Z,100.00
2023-04-10T07:35:37.185Z,100.00
2023-04-10T07:38:07.412Z,100.00
2023-04-10T07:40:40.196Z,100.00
2023-04-10T07:43:10.371Z,100.00
2023-04-10T07:45:40.918Z,100.00
2023-04-10T07:48:11.453Z,100.00
2023-04-10T07:50:41.738Z,100.00
2023-04-10T07:53:11.986Z,100.00
2023-04-10T07:55:48.950Z,100.00
2023-04-10T07:58:19.242Z,100.00
2023-04-10T08:00:49.933Z,100.00
2023-04-10T08:03:20.268Z,100.00
2023-04-10T08:05:50.932Z,100.00
2023-04-10T08:08:21.123Z,100.00
2023-04-10T08:10:53.949Z,100.00
2023-04-10T08:13:24.242Z,100.00
2023-04-10T08:15:54.556Z,100.00
2023-04-10T08:18:24.770Z,100.00
2023-04-10T08:20:54.914Z,100.00
2023-04-10T08:23:25.117Z,100.00
2023-04-10T08:25:58.010Z,100.00
2023-04-10T08:28:28.242Z,100.00
2023-04-10T08:30:58.910Z,100.00
2023-04-10T08:33:29.100Z,100.00
2023-04-10T08:35:59.362Z,100.00
2023-04-10T08:38:29.540Z,97.76
2023-04-10T08:41:02.401Z,98.95
2023-04-10T08:43:34.839Z,96.84
2023-04-10T08:46:05.559Z,97.61
2023-04-10T08:48:42.258Z,95.06
2023-04-10T08:51:20.049Z,94.06
2023-04-10T08:53:55.006Z,91.20
2023-04-10T08:56:28.416Z,95.33
2023-04-10T08:58:58.693Z,92.01
2023-04-10T09:01:29.038Z,85.21
2023-04-10T09:03:59.941Z,81.42
2023-04-10T09:06:31.898Z,76.40
2023-04-10T09:09:02.932Z,81.89
2023-04-10T09:12:04.414Z,82.41
2023-04-10T09:14:36.314Z,84.30
2023-04-10T09:17:19.008Z,80.28
2023-04-10T09:19:50.767Z,82.50
2023-04-10T09:22:21.568Z,74.72
2023-04-10T09:24:52.207Z,76.67
2023-04-10T09:27:35.813Z,74.55
2023-04-10T09:30:08.690Z,74.67
2023-04-10T09:32:41.737Z,72.13
2023-04-10T09:35:14.314Z,72.92
2023-04-10T09:37:46.383Z,74.01
2023-04-10T09:40:27.844Z,69.80
2023-04-10T09:43:01.010Z,69.70
2023-04-10T09:45:50.181Z,71.95
2023-04-10T09:48:21.199Z,69.88
2023-04-10T09:50:51.671Z,68.57
2023-04-10T09:53:23.625Z,69.42
2023-04-10T09:55:54.284Z,70.90
2023-04-10T09:58:28.569Z,71.27
2023-04-10T10:00:59.383Z,68.25
2023-04-10T10:03:30.054Z,65.88
2023-04-10T10:06:00.416Z,66.83
2023-04-10T10:08:31.221Z,66.61
2023-04-10T10:11:06.447Z,64.55
2023-04-10T10:13:45.935Z,63.83
2023-04-10T10:16:20.736Z,64.13
2023-04-10T10:18:58.297Z,63.84
2023-04-10T10:21:34.168Z,61.07
2023-04-10T10:24:05.715Z,57.45
2023-04-10T10:26:37.496Z,57.68
2023-04-10T10:29:14.288Z,59.97
2023-04-10T10:31:46.355Z,59.55
2023-04-10T10:34:19.165Z,58.58
2023-04-10T10:36:50.732Z,57.34
2023-04-10T10:39:32.476Z,60.98
2023-04-10T10:42:09.699Z,59.98
2023-04-10T10:44:50.752Z,58.83
2023-04-10T10:47:24.883Z,58.97
2023-04-10T10:49:56.694Z,59.60
2023-04-10T10:52:42.817Z,56.87
2023-04-10T10:55:39.867Z,57.85
2023-04-10T10:58:12.919Z,58.33
2023-04-10T11:01:12.815Z,58.78
2023-04-10T11:03:44.944Z,57.62
2023-04-10T11:06:20.181Z,59.07
2023-04-10T11:09:03.043Z,60.64
2023-04-10T11:12:01.104Z,59.76
2023-04-10T11:14:34.879Z,59.40
2023-04-10T11:17:24.392Z,58.74
2023-04-10T11:20:08.573Z,57.55
2023-04-10T11:23:34.301Z,59.84
2023-04-10T11:26:16.133Z,58.59
2023-04-10T11:28:46.493Z,58.46
2023-04-10T11:31:22.482Z,57.55
2023-04-10T11:34:06.284Z,59.37
2023-04-10T11:36:38.687Z,60.93
2023-04-10T11:39:14.006Z,60.44
2023-04-10T11:41:46.164Z,58.56
2023-04-10T11:44:21.246Z,59.84
2023-04-10T11:46:52.254Z,59.75
2023-04-10T11:49:26.574Z,59.13
2023-04-10T11:51:57.137Z,59.66
2023-04-10T11:54:28.839Z,61.59
2023-04-10T11:57:02.386Z,60.25
2023-04-10T11:59:33.044Z,61.66
2023-04-10T12:02:10.770Z,63.23
2023-04-10T12:04:44.766Z,64.43
2023-04-10T12:07:15.218Z,63.61
2023-04-10T12:09:45.806Z,63.67
2023-04-10T12:12:15.933Z,63.48
2023-04-10T12:14:46.936Z,64.35
2023-04-10T12:17:17.709Z,62.18
2023-04-10T12:19:51.081Z,64.03
2023-04-10T12:22:21.887Z,63.98
2023-04-10T12:24:53.733Z,63.95
2023-04-10T12:27:25.744Z,64.21
2023-04-10T12:29:57.623Z,64.35
2023-04-10T12:32:28.916Z,62.95
2023-04-10T12:35:02.610Z,63.65
2023-04-10T12:37:47.271Z,62.09
2023-04-10T12:40:18.547Z,62.89
2023-04-10T12:42:49.576Z,61.25
2023-04-10T12:45:21.007Z,62.35
2023-04-10T12:47:53.881Z,61.08
2023-04-10T12:50:27.543Z,63.65
2023-04-10T12:53:06.591Z,61.36
2023-04-10T12:55:36.998Z,61.12
2023-04-10T12:58:20.955Z,61.77
2023-04-10T13:00:52.377Z,62.23
2023-04-10T13:03:22.857Z,60.77
2023-04-10T13:05:56.540Z,61.37
2023-04-10T13:08:26.457Z,63.15
2023-04-10T13:11:03.295Z,63.93
2023-04-10T13:13:34.417Z,63.99
2023-04-10T13:16:04.780Z,64.60
2023-04-10T13:18:37.144Z,64.74
2023-04-10T13:21:11.547Z,64.53
2023-04-10T13:23:42.718Z,67.18
2023-04-10T13:26:13.195Z,64.53
2023-04-10T13:28:43.392Z,62.11
2023-04-10T13:31:16.115Z,63.24
2023-04-10T13:33:48.321Z,65.81
2023-04-10T13:36:21.202Z,61.67
2023-04-10T13:38:51.532Z,62.57
2023-04-10T13:41:21.925Z,60.90
2023-04-10T13:43:52.166Z,60.66
2023-04-10T13:46:22.494Z,60.21
2023-04-10T13:48:52.680Z,60.39
2023-04-10T13:51:25.848Z,59.56
2023-04-10T13:53:55.990Z,61.52
2023-04-10T13:56:26.226Z,61.24
2023-04-10T13:58:56.668Z,59.89
2023-04-10T14:01:27.355Z,59.62
2023-04-10T14:03:57.838Z,61.36
2023-04-10T14:06:32.019Z,62.54
2023-04-10T14:09:02.426Z,62.02
2023-04-10T14:11:32.689Z,63.56
2023-04-10T14:14:02.895Z,61.95
2023-04-10T14:16:33.241Z,62.79
2023-04-10T14:19:03.620Z,63.37
2023-04-10T14:21:37.551Z,64.03
2023-04-10T14:24:07.812Z,65.00
2023-04-10T14:26:38.004Z,64.01
2023-04-10T14:29:09.280Z,65.58
2023-04-10T14:31:50.463Z,63.17
2023-04-10T14:34:27.336Z,63.65
2023-04-10T14:37:00.175Z,62.31
2023-04-10T14:39:30.754Z,63.34
2023-04-10T14:42:02.231Z,62.96
2023-04-10T14:44:32.966Z,63.56
2023-04-10T14:47:06.393Z,62.55
2023-04-10T14:49:36.693Z,65.42
2023-04-10T14:52:09.621Z,67.24
2023-04-10T14:54:39.805Z,66.28
2023-04-10T14:57:10.041Z,67.41
2023-04-10T14:59:40.217Z,68.26
2023-04-10T15:02:10.542Z,68.88
2023-04-10T15:04:40.761Z,69.58
2023-04-10T15:07:16.684Z,69.68
2023-04-10T15:09:46.937Z,71.39
2023-04-10T15:12:17.221Z,71.21
2023-04-10T15:14:47.529Z,70.56
2023-04-10T15:17:17.878Z,71.95
2023-04-10T15:19:48.054Z,71.57
2023-04-10T15:22:20.890Z,71.48
2023-04-10T15:24:51.293Z,72.13
2023-04-10T15:27:25.440Z,73.38
2023-04-10T15:29:55.659Z,72.85
2023-04-10T15:32:26.402Z,72.92
2023-04-10T15:34:56.673Z,74.66
2023-04-10T15:37:29.585Z,73.92
2023-04-10T15:40:00.167Z,73.93
2023-04-10T15:42:31.008Z,76.70
2023-04-10T15:45:01.198Z,76.99
2023-04-10T15:47:31.514Z,75.13
2023-04-10T15:50:01.810Z,77.19
2023-04-10T15:52:35.043Z,76.58
2023-04-10T15:55:05.532Z,77.20
2023-04-10T15:57:36.259Z,77.42
2023-04-10T16:00:07.035Z,78.40
2023-04-10T16:02:37.421Z,78.65
2023-04-10T16:05:08.866Z,78.06
2023-04-10T16:07:43.985Z,76.89
2023-04-10T16:10:14.867Z,78.12
2023-04-10T16:12:45.159Z,77.42
2023-04-10T16:15:16.424Z,78.40
2023-04-10T16:17:46.833Z,80.26
2023-04-10T16:20:17.688Z,80.76
2023-04-10T16:22:50.493Z,81.19
2023-04-10T16:25:21.804Z,82.63
2023-04-10T16:27:53.533Z,82.21
2023-04-10T16:30:23.887Z,79.99
2023-04-10T16:32:54.716Z,82.82
2023-04-10T16:35:25.723Z,82.97
2023-04-10T16:37:58.705Z,83.91
2023-04-10T16:40:32.918Z,83.89
2023-04-10T16:43:03.401Z,84.70
2023-04-10T16:49:13.813Z,88.38
2023-04-10T16:51:50.373Z,86.55
2023-04-10T16:54:24.656Z,88.87
2023-04-10T17:00:24.005Z,95.27
2023-04-10T17:03:52.188Z,95.11
2023-04-10T17:18:35.716Z,100.00
2023-04-10T17:22:17.772Z,100.00
2023-04-10T17:25:05.831Z,100.00
2023-04-10T17:27:50.521Z,100.00
2023-04-10T17:30:44.612Z,100.00
2023-04-10T17:33:19.842Z,100.00
2023-04-10T17:36:27.906Z,100.00
2023-04-10T17:39:01.144Z,100.00
2023-04-10T17:41:47.650Z,100.00
2023-04-10T17:44:18.115Z,100.00
2023-04-10T17:46:48.603Z,100.00
2023-04-10T17:49:19.085Z,100.00
2023-04-10T17:51:53.201Z,100.00
2023-04-10T17:54:25.527Z,100.00
2023-04-10T17:56:58.950Z,100.00
2023-04-10T17:59:34.496Z,100.00
2023-04-10T18:02:04.745Z,100.00
2023-04-10T18:04:35.523Z,100.00
2023-04-10T18:07:09.114Z,100.00
2023-04-10T18:09:39.704Z,100.00
2023-04-10T18:12:11.012Z,100.00
2023-04-10T18:14:42.805Z,100.00
2023-04-10T18:17:12.999Z,100.00
2023-04-10T18:19:43.131Z,100.00
2023-04-10T18:22:15.968Z,100.00
2023-04-10T18:24:49.910Z,100.00
2023-04-10T18:27:20.135Z,100.00
2023-04-10T18:30:01.043Z,100.00
2023-04-10T18:32:31.416Z,100.00
2023-04-10T18:35:03.817Z,100.00
2023-04-10T18:37:36.825Z,100.00
2023-04-10T18:40:15.866Z,100.00
2023-04-10T18:42:49.267Z,100.00
2023-04-10T18:45:20.800Z,100.00
2023-04-10T18:47:53.343Z,100.00
2023-04-10T18:50:23.526Z,100.00
2023-04-10T18:52:56.304Z,100.00
2023-04-10T18:55:26.571Z,100.00
2023-04-10T18:57:56.931Z,100.00
2023-04-10T19:00:32.293Z,100.00
2023-04-10T19:03:07.256Z,100.00
2023-04-10T19:05:37.658Z,100.00
2023-04-10T19:08:14.481Z,100.00
2023-04-10T19:10:45.275Z,100.00
2023-04-10T19:13:16.070Z,100.00
2023-04-10T19:15:48.633Z,100.00
2023-04-10T19:18:18.993Z,100.00
2023-04-10T19:20:52.989Z,100.00
2023-04-10T19:23:29.346Z,100.00
2023-04-10T19:26:00.627Z,100.00
2023-04-10T19:28:33.110Z,100.00
2023-04-10T19:31:03.838Z,100.00
2023-04-10T19:33:34.463Z,100.00
2023-04-10T19:36:06.822Z,100.00
2023-04-10T19:38:41.222Z,100.00
2023-04-10T19:41:18.251Z,100.00
2023-04-10T19:43:49.391Z,100.00
2023-04-10T19:46:20.716Z,100.00
2023-04-10T19:48:52.273Z,100.00
2023-04-10T19:51:22.486Z,100.00
2023-04-10T19:53:56.049Z,100.00
2023-04-10T19:56:27.215Z,100.00
2023-04-10T19:58:58.027Z,100.00
2023-04-10T20:01:28.755Z,100.00
2023-04-10T20:03:59.307Z,100.00
2023-04-10T20:06:30.010Z,100.00
2023-04-10T20:09:03.089Z,100.00
2023-04-10T20:11:33.595Z,100.00
2023-04-10T20:14:04.030Z,100.00
2023-04-10T20:16:34.622Z,100.00
2023-04-10T20:19:05.501Z,100.00
2023-04-10T20:21:36.767Z,100.00
2023-04-10T20:24:09.912Z,100.00
2023-04-10T20:26:40.288Z,100.00
2023-04-10T20:29:10.973Z,100.00
2023-04-10T20:31:41.499Z,100.00
2023-04-10T20:34:11.961Z,100.00
2023-04-10T20:36:42.299Z,100.00
2023-04-10T20:39:15.205Z,100.00
2023-04-10T20:41:45.497Z,100.00
2023-04-10T20:44:15.769Z,100.00
2023-04-10T20:46:50.430Z,100.00
2023-04-10T20:49:20.723Z,100.00
2023-04-10T20:51:50.958Z,100.00
2023-04-10T20:54:25.954Z,100.00
2023-04-10T20:56:57.243Z,100.00
2023-04-10T20:59:27.536Z,100.00
2023-04-10T21:01:58.445Z,100.00
2023-04-10T21:04:29.141Z,100.00
2023-04-10T21:06:59.719Z,100.00
2023-04-10T21:09:33.055Z,100.00
2023-04-10T21:12:03.319Z,100.00
2023-04-10T21:14:33.842Z,100.00
2023-04-10T21:17:04.177Z,100.00
2023-04-10T21:19:38.810Z,100.00
2023-04-10T21:22:10.491Z,100.00
2023-04-10T21:24:43.341Z,100.00
2023-04-10T21:27:13.683Z,100.00
2023-04-10T21:29:43.884Z,100.00
2023-04-10T21:32:14.168Z,100.00
2023-04-10T21:34:44.630Z,100.00
2023-04-10T21:37:14.814Z,100.00
2023-04-10T21:39:47.581Z,100.00
2023-04-10T21:42:17.730Z,100.00
2023-04-10T21:44:47.893Z,100.00
2023-04-10T21:47:18.024Z,100.00
2023-04-10T21:49:48.226Z,100.00
2023-04-10T21:52:18.512Z,100.00
2023-04-10T21:54:51.244Z,100.00
2023-04-10T21:57:21.621Z,100.00
2023-04-10T21:59:51.765Z,100.00
2023-04-10T22:02:22.614Z,100.00
2023-04-10T22:04:54.778Z,100.00
2023-04-10T22:07:25.302Z,100.00
2023-04-10T22:09:58.090Z,100.00
2023-04-10T22:12:28.286Z,100.00
2023-04-10T22:14:58.513Z,100.00
2023-04-10T22:17:28.753Z,100.00
2023-04-10T22:19:58.945Z,100.00
2023-04-10T22:22:29.179Z,100.00
2023-04-10T22:25:02.064Z,100.00
2023-04-10T22:27:32.346Z,100.00
2023-04-10T22:30:04.233Z,100.00
2023-04-10T22:32:35.088Z,100.00
2023-04-10T22:35:05.343Z,100.00
2023-04-10T22:37:35.778Z,100.00
2023-04-10T22:40:10.143Z,100.00
2023-04-10T22:42:40.397Z,100.00
2023-04-10T22:45:11.875Z,100.00
2023-04-10T22:47:42.103Z,100.00
2023-04-10T22:50:12.713Z,100.00
2023-04-10T22:52:42.954Z,100.00
2023-04-10T22:55:16.029Z,100.00
2023-04-10T22:57:50.444Z,100.00
2023-04-10T23:00:21.151Z,100.00
2023-04-10T23:02:51.462Z,100.00
2023-04-10T23:05:21.738Z,100.00
2023-04-10T23:07:51.969Z,100.00
2023-04-10T23:10:24.970Z,100.00
2023-04-10T23:12:55.120Z,100.00
2023-04-10T23:15:28.416Z,100.00
2023-04-10T23:17:59.240Z,100.00
2023-04-10T23:20:29.547Z,100.00
2023-04-10T23:22:59.760Z,100.00
2023-04-10T23:25:32.688Z,100.00
2023-04-10T23:28:03.731Z,100.00
2023-04-10T23:30:34.636Z,100.00
2023-04-10T23:33:05.026Z,100.00
2023-04-10T23:35:35.275Z,100.00
2023-04-10T23:38:05.638Z,100.00
2023-04-10T23:40:38.556Z,100.00
2023-04-10T23:43:08.897Z,100.00
2023-04-10T23:45:39.357Z,100.00
2023-04-10T23:48:10.908Z,100.00
2023-04-10T23:50:41.250Z,100.00
2023-04-10T23:53:12.811Z,100.00
2023-04-10T23:55:47.243Z,100.00
2023-04-10T23:58:17.473Z,100.00
